MDT,Max TemperatureF,Mean TemperatureF,Min TemperatureF,Max Dew PointF,MeanDew PointF,Min DewpointF,Max Humidity, Mean Humidity, Min Humidity, Max Sea Level PressureIn, Mean Sea Level PressureIn, Min Sea Level PressureIn, Max VisibilityMiles, Mean VisibilityMiles, Min VisibilityMiles, Max Wind SpeedMPH, Mean Wind SpeedMPH, Max Gust SpeedMPH,PrecipitationIn, CloudCover, Events, WindDirDegrees
2014-3-1,-2,-10,-18,-8,-14,-22,87,79,71,30.53,30.23,30.03,10,4,0,16,8,18,0.15,7,Snow,33
2014-3-2,9,-1,-11,1,-5,-16,83,76,68,30.46,30.32,29.97,10,10,10,24,13,30,0.00,3,,155
2014-3-3,47,27,7,32,22,2,84,69,53,30.05,29.94,29.76,10,10,10,21,7,26,0.00,1,,177
2014-3-4,45,38,30,31,29,27,85,72,58,30.04,29.89,29.75,10,10,10,18,10,24,0.00,2,,274
2014-3-5,51,42,33,30,27,23,75,58,41,30.07,29.95,29.78,10,10,10,23,15,28,0.00,0,,215
2014-3-6,55,45,34,35,31,27,85,68,50,29.85,29.73,29.60,10,10,10,32,17,40,0.02,3,Rain,249
2014-3-7,41,34,26,34,30,26,100,83,65,30.23,30.04,29.86,10,6,0,12,5,13,T,6,Fog,338
2014-3-8,56,44,32,31,28,24,89,60,30,30.26,30.14,29.92,10,10,10,36,14,45,0.00,0,,228
2014-3-9,56,48,40,29,26,22,53,43,32,29.89,29.86,29.82,10,10,10,32,21,41,0.00,0,,231
2014-3-10,58,45,32,38,32,26,96,68,40,29.90,29.71,29.59,10,10,10,24,12,29,T,3,,340
2014-3-11,38,33,27,30,26,19,92,74,56,30.38,30.10,29.71,10,7,1,28,17,33,0.13,6,Snow,339
2014-3-12,47,36,25,24,20,15,72,55,37,30.34,30.24,30.09,10,10,10,20,11,24,0.00,0,,258
2014-3-13,57,45,32,26,23,20,73,49,25,30.06,29.89,29.76,10,10,10,25,11,31,0.00,0,,266
2014-3-14,58,43,27,29,23,13,78,48,17,29.96,29.87,29.78,10,10,10,18,10,22,0.00,2,,244
2014-3-15,42,34,25,34,28,23,92,75,57,30.37,30.13,29.79,10,10,6,32,14,40,0.01,7,Rain-Snow,321
2014-3-16,61,45,28,27,24,18,85,52,19,30.33,30.04,29.71,10,10,10,23,13,28,0.00,0,,229
2014-3-17,61,46,30,36,28,21,92,59,26,29.68,29.42,29.19,10,7,0,33,21,40,0.12,4,Fog-Rain-Snow,315
2014-3-18,36,31,25,28,27,22,92,78,64,30.14,29.88,29.62,10,8,1,31,14,53,0.04,6,Snow,339
2014-3-19,44,35,25,25,22,14,88,59,30,30.11,30.03,29.91,10,10,10,17,9,22,T,1,,230
2014-3-20,55,42,29,29,20,13,70,46,22,29.97,29.84,29.66,10,10,10,31,16,38,0.00,3,,272
2014-3-21,31,25,18,23,19,14,84,69,53,30.38,30.18,29.96,10,9,3,23,14,28,T,8,Snow,357
2014-3-22,24,17,9,14,11,6,92,80,68,30.50,30.36,30.22,10,4,0,15,5,17,0.12,8,Fog-Snow,15
2014-3-23,40,28,15,27,19,9,81,66,50,30.40,30.21,30.04,10,10,4,26,12,31,T,3,Snow,359
2014-3-24,29,24,18,19,17,14,84,74,63,30.45,30.34,30.19,10,9,2,20,10,23,0.01,7,Snow,333
2014-3-25,53,34,15,30,22,11,88,65,41,30.43,30.03,29.61,10,10,10,25,14,30,0.00,1,,165
2014-3-26,56,44,31,30,25,19,75,55,34,29.56,29.43,29.35,10,10,10,23,13,28,0.00,2,,314
2014-3-27,39,32,25,31,25,17,85,72,58,29.80,29.70,29.52,10,6,0,16,7,18,0.23,7,Fog-Snow,72
2014-3-28,45,36,26,32,28,23,92,69,45,30.10,29.90,29.68,10,6,0,29,14,33,0.04,6,Fog-Snow,279
2014-3-29,64,47,30,31,26,22,82,52,21,29.99,29.81,29.64,10,10,10,30,17,38,0.00,0,,242
2014-3-30,57,43,28,38,32,26,92,66,40,29.82,29.63,29.46,10,9,2,28,11,33,0.10,4,Rain-Snow,270
2014-3-31,31,21,10,29,20,8,92,83,74,30.17,29.92,29.61,10,4,0,35,13,40,0.11,7,Fog-Snow,339